sensor_id;sensor_type;location;lat;lon;timestamp;temperature;humidity
15749;DHT22;7976;52.526;13.326;2022-12-07T00:01:43;3.50;99.90
15749;DHT22;7976;52.526;13.326;2022-12-07T00:04:12;3.40;99.90
15749;DHT22;7976;52.526;13.326;2022-12-07T00:06:43;3.40;99.90
15749;DHT22;7976;52.526;13.326;2022-12-07T00:09:13;3.40;99.90
15749;DHT22;7976;52.526;13.326;2022-12-07T00:11:42;3.40;99.90
15749;DHT22;7976;52.526;13.326;2022-12-07T00:14:12;3.40;99.90
15749;DHT22;7976;52.526;13.326;2022-12-07T00:16:41;3.40;99.90
15749;DHT22;7976;52.526;13.326;2022-12-07T00:19:10;3.30;99.90
15749;DHT22;7976;52.526;13.326;2022-12-07T00:21:38;3.30;99.90
15749;DHT22;7976;52.526;13.326;2022-12-07T00:24:07;3.30;99.90
15749;DHT22;7976;52.526;13.326;2022-12-07T00:26:36;3.30;99.90
15749;DHT22;7976;52.526;13.326;2022-12-07T00:29:07;3.30;99.90
15749;DHT22;7976;52.526;13.326;2022-12-07T00:31:42;3.30;99.90
15749;DHT22;7976;52.526;13.326;2022-12-07T00:34:14;3.30;99.90
15749;DHT22;7976;52.526;13.326;2022-12-07T00:36:41;3.20;99.90
15749;DHT22;7976;52.526;13.326;2022-12-07T00:39:10;3.20;99.90
15749;DHT22;7976;52.526;13.326;2022-12-07T00:41:37;3.20;99.90
15749;DHT22;7976;52.526;13.326;2022-12-07T00:44:04;3.10;99.90
15749;DHT22;7976;52.526;13.326;2022-12-07T00:46:31;3.10;99.90
15749;DHT22;7976;52.526;13.326;2022-12-07T00:48:58;3.10;99.90
15749;DHT22;7976;52.526;13.326;2022-12-07T00:51:25;3.10;99.90
15749;DHT22;7976;52.526;13.326;2022-12-07T00:53:52;3.00;99.90
15749;DHT22;7976;52.526;13.326;2022-12-07T00:56:25;3.00;99.90
15749;DHT22;7976;52.526;13.326;2022-12-07T00:58:54;3.00;99.90
15749;DHT22;7976;52.526;13.326;2022-12-07T01:01:23;2.90;99.90
15749;DHT22;7976;52.526;13.326;2022-12-07T01:03:53;2.90;99.90
15749;DHT22;7976;52.526;13.326;2022-12-07T01:06:22;2.90;99.90
15749;DHT22;7976;52.526;13.326;2022-12-07T01:08:50;2.90;99.90
15749;DHT22;7976;52.526;13.326;2022-12-07T01:11:24;3.00;99.90
15749;DHT22;7976;52.526;13.326;2022-12-07T01:13:54;3.00;99.90
15749;DHT22;7976;52.526;13.326;2022-12-07T01:16:24;3.00;99.90
15749;DHT22;7976;52.526;13.326;2022-12-07T01:18:53;3.00;99.90
15749;DHT22;7976;52.526;13.326;2022-12-07T01:21:23;3.00;99.90
15749;DHT22;7976;52.526;13.326;2022-12-07T01:23:52;2.90;99.90
15749;DHT22;7976;52.526;13.326;2022-12-07T01:26:21;3.00;99.90
15749;DHT22;7976;52.526;13.326;2022-12-07T01:28:54;2.90;99.90
15749;DHT22;7976;52.526;13.326;2022-12-07T01:31:22;2.90;99.90
15749;DHT22;7976;52.526;13.326;2022-12-07T01:33:52;2.90;99.90
15749;DHT22;7976;52.526;13.326;2022-12-07T01:36:23;3.00;99.90
15749;DHT22;7976;52.526;13.326;2022-12-07T01:38:56;3.00;99.90
15749;DHT22;7976;52.526;13.326;2022-12-07T01:41:28;3.00;99.90
15749;DHT22;7976;52.526;13.326;2022-12-07T01:46:52;3.00;99.90
15749;DHT22;7976;52.526;13.326;2022-12-07T01:49:26;3.00;99.90
15749;DHT22;7976;52.526;13.326;2022-12-07T01:52:03;3.00;99.90
15749;DHT22;7976;52.526;13.326;2022-12-07T01:54:39;3.00;99.90
15749;DHT22;7976;52.526;13.326;2022-12-07T01:57:11;3.00;99.90
15749;DHT22;7976;52.526;13.326;2022-12-07T01:59:43;3.00;99.90
15749;DHT22;7976;52.526;13.326;2022-12-07T02:02:18;3.00;99.90
15749;DHT22;7976;52.526;13.326;2022-12-07T02:04:46;3.00;99.90
15749;DHT22;7976;52.526;13.326;2022-12-07T02:07:13;3.10;99.90
15749;DHT22;7976;52.526;13.326;2022-12-07T02:09:44;3.00;99.90
15749;DHT22;7976;52.526;13.326;2022-12-07T02:12:12;3.00;99.90
15749;DHT22;7976;52.526;13.326;2022-12-07T02:14:39;3.00;99.90
15749;DHT22;7976;52.526;13.326;2022-12-07T02:17:11;3.00;99.90
15749;DHT22;7976;52.526;13.326;2022-12-07T02:20:11;3.00;99.90
15749;DHT22;7976;52.526;13.326;2022-12-07T02:23:00;3.10;99.90
15749;DHT22;7976;52.526;13.326;2022-12-07T02:26:02;3.00;99.90
15749;DHT22;7976;52.526;13.326;2022-12-07T02:29:03;3.00;99.90
15749;DHT22;7976;52.526;13.326;2022-12-07T02:31:56;3.00;99.90
15749;DHT22;7976;52.526;13.326;2022-12-07T02:34:39;3.00;99.90
15749;DHT22;7976;52.526;13.326;2022-12-07T02:37:25;3.00;99.90
15749;DHT22;7976;52.526;13.326;2022-12-07T02:40:04;3.00;99.90
15749;DHT22;7976;52.526;13.326;2022-12-07T02:42:40;3.00;99.90
15749;DHT22;7976;52.526;13.326;2022-12-07T02:45:15;3.00;99.90
15749;DHT22;7976;52.526;13.326;2022-12-07T02:47:49;3.00;99.90
15749;DHT22;7976;52.526;13.326;2022-12-07T02:50:20;3.00;99.90
15749;DHT22;7976;52.526;13.326;2022-12-07T02:52:47;3.00;99.90
15749;DHT22;7976;52.526;13.326;2022-12-07T02:55:18;3.00;99.90
15749;DHT22;7976;52.526;13.326;2022-12-07T02:57:58;3.00;99.90
15749;DHT22;7976;52.526;13.326;2022-12-07T03:00:50;3.00;99.90
15749;DHT22;7976;52.526;13.326;2022-12-07T03:03:26;3.00;99.90
15749;DHT22;7976;52.526;13.326;2022-12-07T03:06:02;3.00;99.90
15749;DHT22;7976;52.526;13.326;2022-12-07T03:08:46;3.10;99.90
15749;DHT22;7976;52.526;13.326;2022-12-07T03:11:25;3.10;99.90
15749;DHT22;7976;52.526;13.326;2022-12-07T03:14:01;3.10;99.90
15749;DHT22;7976;52.526;13.326;2022-12-07T03:16:37;3.10;99.90
15749;DHT22;7976;52.526;13.326;2022-12-07T03:19:13;3.10;99.90
15749;DHT22;7976;52.526;13.326;2022-12-07T03:21:46;3.20;99.90
15749;DHT22;7976;52.526;13.326;2022-12-07T03:24:18;3.20;99.90
15749;DHT22;7976;52.526;13.326;2022-12-07T03:26:50;3.20;99.90
15749;DHT22;7976;52.526;13.326;2022-12-07T03:29:27;3.20;99.90
15749;DHT22;7976;52.526;13.326;2022-12-07T03:32:01;3.30;99.90
15749;DHT22;7976;52.526;13.326;2022-12-07T03:34:34;3.30;99.90
15749;DHT22;7976;52.526;13.326;2022-12-07T03:37:10;3.30;99.90
15749;DHT22;7976;52.526;13.326;2022-12-07T03:39:48;3.30;99.90
15749;DHT22;7976;52.526;13.326;2022-12-07T03:42:21;3.40;99.90
15749;DHT22;7976;52.526;13.326;2022-12-07T03:44:48;3.40;99.90
15749;DHT22;7976;52.526;13.326;2022-12-07T03:47:24;3.50;99.90
15749;DHT22;7976;52.526;13.326;2022-12-07T03:49:59;3.50;99.90
15749;DHT22;7976;52.526;13.326;2022-12-07T03:52:32;3.40;99.90
15749;DHT22;7976;52.526;13.326;2022-12-07T03:55:07;3.40;99.90
15749;DHT22;7976;52.526;13.326;2022-12-07T03:57:38;3.40;99.90
15749;DHT22;7976;52.526;13.326;2022-12-07T04:00:10;3.30;99.90
15749;DHT22;7976;52.526;13.326;2022-12-07T04:02:41;3.30;99.90
15749;DHT22;7976;52.526;13.326;2022-12-07T04:05:09;3.20;99.90
15749;DHT22;7976;52.526;13.326;2022-12-07T04:07:36;3.20;99.90
15749;DHT22;7976;52.526;13.326;2022-12-07T04:10:05;3.20;99.90
15749;DHT22;7976;52.526;13.326;2022-12-07T04:12:32;3.10;99.90
15749;DHT22;7976;52.526;13.326;2022-12-07T04:14:59;3.10;99.90
15749;DHT22;7976;52.526;13.326;2022-12-07T04:17:26;3.10;99.90
15749;DHT22;7976;52.526;13.326;2022-12-07T04:19:54;3.10;99.90
15749;DHT22;7976;52.526;13.326;2022-12-07T04:22:21;3.10;99.90
15749;DHT22;7976;52.526;13.326;2022-12-07T04:24:47;3.10;99.90
15749;DHT22;7976;52.526;13.326;2022-12-07T04:27:14;3.10;99.90
15749;DHT22;7976;52.526;13.326;2022-12-07T04:29:41;3.10;99.90
15749;DHT22;7976;52.526;13.326;2022-12-07T04:32:08;3.10;99.90
15749;DHT22;7976;52.526;13.326;2022-12-07T04:34:35;3.10;99.90
15749;DHT22;7976;52.526;13.326;2022-12-07T04:37:03;3.00;99.90
15749;DHT22;7976;52.526;13.326;2022-12-07T04:39:31;3.00;99.90
15749;DHT22;7976;52.526;13.326;2022-12-07T04:42:00;3.00;99.90
15749;DHT22;7976;52.526;13.326;2022-12-07T04:44:29;3.00;99.90
15749;DHT22;7976;52.526;13.326;2022-12-07T04:46:56;3.00;99.90
15749;DHT22;7976;52.526;13.326;2022-12-07T04:49:23;3.00;99.90
15749;DHT22;7976;52.526;13.326;2022-12-07T04:51:51;3.00;99.90
15749;DHT22;7976;52.526;13.326;2022-12-07T04:54:19;3.00;99.90
15749;DHT22;7976;52.526;13.326;2022-12-07T04:56:47;3.10;99.90
15749;DHT22;7976;52.526;13.326;2022-12-07T04:59:14;3.10;99.90
15749;DHT22;7976;52.526;13.326;2022-12-07T05:01:42;3.10;99.90
15749;DHT22;7976;52.526;13.326;2022-12-07T05:04:10;3.10;99.90
15749;DHT22;7976;52.526;13.326;2022-12-07T05:06:37;3.10;99.90
15749;DHT22;7976;52.526;13.326;2022-12-07T05:09:04;3.20;99.90
15749;DHT22;7976;52.526;13.326;2022-12-07T05:11:32;3.10;99.90
15749;DHT22;7976;52.526;13.326;2022-12-07T05:14:08;3.20;99.90
15749;DHT22;7976;52.526;13.326;2022-12-07T05:16:39;3.20;99.90
15749;DHT22;7976;52.526;13.326;2022-12-07T05:19:07;3.20;99.90
15749;DHT22;7976;52.526;13.326;2022-12-07T05:21:35;3.20;99.90
15749;DHT22;7976;52.526;13.326;2022-12-07T05:24:03;3.20;99.90
15749;DHT22;7976;52.526;13.326;2022-12-07T05:26:33;3.30;99.90
15749;DHT22;7976;52.526;13.326;2022-12-07T05:29:00;3.30;99.90
15749;DHT22;7976;52.526;13.326;2022-12-07T05:31:27;3.30;99.90
15749;DHT22;7976;52.526;13.326;2022-12-07T05:33:54;3.30;99.90
15749;DHT22;7976;52.526;13.326;2022-12-07T05:36:22;3.30;99.90
15749;DHT22;7976;52.526;13.326;2022-12-07T05:38:49;3.40;99.90
15749;DHT22;7976;52.526;13.326;2022-12-07T05:41:18;3.40;99.90
15749;DHT22;7976;52.526;13.326;2022-12-07T05:44:05;3.40;99.90
15749;DHT22;7976;52.526;13.326;2022-12-07T05:46:32;3.40;99.90
15749;DHT22;7976;52.526;13.326;2022-12-07T05:48:59;3.40;99.90
15749;DHT22;7976;52.526;13.326;2022-12-07T05:51:26;3.40;99.90
15749;DHT22;7976;52.526;13.326;2022-12-07T05:53:53;3.50;99.90
15749;DHT22;7976;52.526;13.326;2022-12-07T05:56:20;3.50;99.90
15749;DHT22;7976;52.526;13.326;2022-12-07T05:58:48;3.50;99.90
15749;DHT22;7976;52.526;13.326;2022-12-07T06:01:33;3.50;99.90
15749;DHT22;7976;52.526;13.326;2022-12-07T06:04:00;3.50;99.90
15749;DHT22;7976;52.526;13.326;2022-12-07T06:06:27;3.60;99.90
15749;DHT22;7976;52.526;13.326;2022-12-07T06:08:54;3.60;99.90
15749;DHT22;7976;52.526;13.326;2022-12-07T06:11:21;3.60;99.90
15749;DHT22;7976;52.526;13.326;2022-12-07T06:14:05;3.60;99.90
15749;DHT22;7976;52.526;13.326;2022-12-07T06:16:33;3.60;99.90
15749;DHT22;7976;52.526;13.326;2022-12-07T06:19:00;3.70;99.90
15749;DHT22;7976;52.526;13.326;2022-12-07T06:21:28;3.60;99.90
15749;DHT22;7976;52.526;13.326;2022-12-07T06:23:54;3.60;99.90
15749;DHT22;7976;52.526;13.326;2022-12-07T06:26:21;3.70;99.90
15749;DHT22;7976;52.526;13.326;2022-12-07T06:28:48;3.60;99.90
15749;DHT22;7976;52.526;13.326;2022-12-07T06:31:15;3.60;99.90
15749;DHT22;7976;52.526;13.326;2022-12-07T06:33:44;3.60;99.90
15749;DHT22;7976;52.526;13.326;2022-12-07T06:36:11;3.60;99.90
15749;DHT22;7976;52.526;13.326;2022-12-07T06:38:38;3.50;99.90
15749;DHT22;7976;52.526;13.326;2022-12-07T06:41:05;3.60;99.90
15749;DHT22;7976;52.526;13.326;2022-12-07T06:43:32;3.50;99.90
15749;DHT22;7976;52.526;13.326;2022-12-07T06:45:59;3.50;99.90
15749;DHT22;7976;52.526;13.326;2022-12-07T06:48:26;3.50;99.90
15749;DHT22;7976;52.526;13.326;2022-12-07T06:50:54;3.50;99.90
15749;DHT22;7976;52.526;13.326;2022-12-07T06:53:21;3.50;99.90
15749;DHT22;7976;52.526;13.326;2022-12-07T06:55:48;3.50;99.90
15749;DHT22;7976;52.526;13.326;2022-12-07T06:58:15;3.50;99.90
15749;DHT22;7976;52.526;13.326;2022-12-07T07:00:42;3.60;99.90
15749;DHT22;7976;52.526;13.326;2022-12-07T07:03:10;3.60;99.90
15749;DHT22;7976;52.526;13.326;2022-12-07T07:05:37;3.60;99.90
15749;DHT22;7976;52.526;13.326;2022-12-07T07:08:05;3.60;99.90
15749;DHT22;7976;52.526;13.326;2022-12-07T07:10:32;3.60;99.90
15749;DHT22;7976;52.526;13.326;2022-12-07T07:12:59;3.70;99.90
15749;DHT22;7976;52.526;13.326;2022-12-07T07:15:26;3.70;99.90
15749;DHT22;7976;52.526;13.326;2022-12-07T07:17:53;3.70;99.90
15749;DHT22;7976;52.526;13.326;2022-12-07T07:20:20;3.70;99.90
15749;DHT22;7976;52.526;13.326;2022-12-07T07:22:47;3.70;99.90
15749;DHT22;7976;52.526;13.326;2022-12-07T07:25:16;3.80;99.90
15749;DHT22;7976;52.526;13.326;2022-12-07T07:27:44;3.80;99.90
15749;DHT22;7976;52.526;13.326;2022-12-07T07:30:11;3.80;99.90
15749;DHT22;7976;52.526;13.326;2022-12-07T07:32:38;3.80;99.90
15749;DHT22;7976;52.526;13.326;2022-12-07T07:35:06;3.80;99.90
15749;DHT22;7976;52.526;13.326;2022-12-07T07:37:34;3.80;99.90
15749;DHT22;7976;52.526;13.326;2022-12-07T07:40:00;3.80;99.90
15749;DHT22;7976;52.526;13.326;2022-12-07T07:42:29;3.70;99.90
15749;DHT22;7976;52.526;13.326;2022-12-07T07:44:55;3.70;99.90
15749;DHT22;7976;52.526;13.326;2022-12-07T07:47:22;3.70;99.90
15749;DHT22;7976;52.526;13.326;2022-12-07T07:49:50;3.70;99.90
15749;DHT22;7976;52.526;13.326;2022-12-07T07:52:16;3.70;99.90
15749;DHT22;7976;52.526;13.326;2022-12-07T07:54:43;3.80;99.90
15749;DHT22;7976;52.526;13.326;2022-12-07T07:57:10;3.80;99.90
15749;DHT22;7976;52.526;13.326;2022-12-07T07:59:38;3.80;99.90
15749;DHT22;7976;52.526;13.326;2022-12-07T08:02:05;3.80;99.90
15749;DHT22;7976;52.526;13.326;2022-12-07T08:04:32;3.80;99.90
15749;DHT22;7976;52.526;13.326;2022-12-07T08:06:58;3.80;99.90
15749;DHT22;7976;52.526;13.326;2022-12-07T08:09:25;3.80;99.90
15749;DHT22;7976;52.526;13.326;2022-12-07T08:11:52;3.90;99.90
15749;DHT22;7976;52.526;13.326;2022-12-07T08:14:19;3.90;99.90
15749;DHT22;7976;52.526;13.326;2022-12-07T08:16:47;3.90;99.90
15749;DHT22;7976;52.526;13.326;2022-12-07T08:19:14;4.00;99.90
15749;DHT22;7976;52.526;13.326;2022-12-07T08:21:41;4.00;99.90
15749;DHT22;7976;52.526;13.326;2022-12-07T08:24:08;4.10;99.90
15749;DHT22;7976;52.526;13.326;2022-12-07T08:26:34;4.10;99.90
15749;DHT22;7976;52.526;13.326;2022-12-07T08:29:01;4.10;99.90
15749;DHT22;7976;52.526;13.326;2022-12-07T08:31:28;4.20;99.90
15749;DHT22;7976;52.526;13.326;2022-12-07T08:33:57;4.20;99.90
15749;DHT22;7976;52.526;13.326;2022-12-07T08:36:24;4.10;99.90
15749;DHT22;7976;52.526;13.326;2022-12-07T08:38:50;4.10;99.90
15749;DHT22;7976;52.526;13.326;2022-12-07T08:41:17;4.10;99.90
15749;DHT22;7976;52.526;13.326;2022-12-07T08:43:44;4.20;99.90
15749;DHT22;7976;52.526;13.326;2022-12-07T08:46:13;4.10;99.90
15749;DHT22;7976;52.526;13.326;2022-12-07T08:48:48;4.10;99.90
15749;DHT22;7976;52.526;13.326;2022-12-07T08:51:21;4.20;99.90
15749;DHT22;7976;52.526;13.326;2022-12-07T08:53:49;4.20;99.90
15749;DHT22;7976;52.526;13.326;2022-12-07T08:56:17;4.20;99.90
15749;DHT22;7976;52.526;13.326;2022-12-07T08:58:47;4.20;99.90
15749;DHT22;7976;52.526;13.326;2022-12-07T09:01:14;4.20;99.90
15749;DHT22;7976;52.526;13.326;2022-12-07T09:03:41;4.20;99.90
15749;DHT22;7976;52.526;13.326;2022-12-07T09:06:08;4.20;99.90
15749;DHT22;7976;52.526;13.326;2022-12-07T09:08:39;4.20;99.90
15749;DHT22;7976;52.526;13.326;2022-12-07T09:11:10;4.30;99.90
15749;DHT22;7976;52.526;13.326;2022-12-07T09:13:37;4.30;99.90
15749;DHT22;7976;52.526;13.326;2022-12-07T09:16:04;4.30;99.90
15749;DHT22;7976;52.526;13.326;2022-12-07T09:18:32;4.30;99.90
15749;DHT22;7976;52.526;13.326;2022-12-07T09:20:58;4.20;99.90
15749;DHT22;7976;52.526;13.326;2022-12-07T09:23:25;4.20;99.90
15749;DHT22;7976;52.526;13.326;2022-12-07T09:25:54;4.20;99.90
15749;DHT22;7976;52.526;13.326;2022-12-07T09:28:20;4.20;99.90
15749;DHT22;7976;52.526;13.326;2022-12-07T09:30:48;4.20;99.90
15749;DHT22;7976;52.526;13.326;2022-12-07T09:33:15;4.20;99.90
15749;DHT22;7976;52.526;13.326;2022-12-07T09:35:44;4.20;99.90
15749;DHT22;7976;52.526;13.326;2022-12-07T09:38:12;4.20;99.90
15749;DHT22;7976;52.526;13.326;2022-12-07T09:40:39;4.20;99.90
15749;DHT22;7976;52.526;13.326;2022-12-07T09:43:13;4.20;99.90
15749;DHT22;7976;52.526;13.326;2022-12-07T09:45:44;4.20;99.90
15749;DHT22;7976;52.526;13.326;2022-12-07T09:48:17;4.20;99.90
15749;DHT22;7976;52.526;13.326;2022-12-07T09:50:47;4.20;99.90
15749;DHT22;7976;52.526;13.326;2022-12-07T09:53:18;4.20;99.90
15749;DHT22;7976;52.526;13.326;2022-12-07T09:55:48;4.20;99.90
15749;DHT22;7976;52.526;13.326;2022-12-07T09:58:22;4.20;99.90
15749;DHT22;7976;52.526;13.326;2022-12-07T10:00:53;4.10;99.90
15749;DHT22;7976;52.526;13.326;2022-12-07T10:03:22;4.10;99.90
15749;DHT22;7976;52.526;13.326;2022-12-07T10:05:50;4.10;99.90
15749;DHT22;7976;52.526;13.326;2022-12-07T10:08:19;4.10;99.90
15749;DHT22;7976;52.526;13.326;2022-12-07T10:10:50;4.10;99.90
15749;DHT22;7976;52.526;13.326;2022-12-07T10:13:21;4.20;99.90
15749;DHT22;7976;52.526;13.326;2022-12-07T10:16:00;4.20;99.90
15749;DHT22;7976;52.526;13.326;2022-12-07T10:18:29;4.20;99.90
15749;DHT22;7976;52.526;13.326;2022-12-07T10:21:08;4.20;99.90
15749;DHT22;7976;52.526;13.326;2022-12-07T10:23:40;4.20;99.90
15749;DHT22;7976;52.526;13.326;2022-12-07T10:26:26;4.20;99.90
15749;DHT22;7976;52.526;13.326;2022-12-07T10:28:59;4.20;99.90
15749;DHT22;7976;52.526;13.326;2022-12-07T10:31:26;4.10;99.90
15749;DHT22;7976;52.526;13.326;2022-12-07T10:33:56;4.00;99.90
15749;DHT22;7976;52.526;13.326;2022-12-07T10:36:26;4.00;99.90
15749;DHT22;7976;52.526;13.326;2022-12-07T10:39:02;3.90;99.90
15749;DHT22;7976;52.526;13.326;2022-12-07T10:41:30;3.90;99.90
15749;DHT22;7976;52.526;13.326;2022-12-07T10:43:59;4.00;99.90
15749;DHT22;7976;52.526;13.326;2022-12-07T10:46:53;4.00;99.90
15749;DHT22;7976;52.526;13.326;2022-12-07T10:50:01;4.10;99.90
15749;DHT22;7976;52.526;13.326;2022-12-07T10:53:02;4.20;99.90
15749;DHT22;7976;52.526;13.326;2022-12-07T10:56:01;4.20;99.90
15749;DHT22;7976;52.526;13.326;2022-12-07T10:58:52;4.30;99.90
15749;DHT22;7976;52.526;13.326;2022-12-07T11:01:36;4.30;99.90
15749;DHT22;7976;52.526;13.326;2022-12-07T11:04:20;4.40;99.90
15749;DHT22;7976;52.526;13.326;2022-12-07T11:06:58;4.50;99.90
15749;DHT22;7976;52.526;13.326;2022-12-07T11:09:50;4.60;99.90
15749;DHT22;7976;52.526;13.326;2022-12-07T11:12:34;4.60;99.90
15749;DHT22;7976;52.526;13.326;2022-12-07T11:15:17;4.60;99.90
15749;DHT22;7976;52.526;13.326;2022-12-07T11:17:54;4.60;99.90
15749;DHT22;7976;52.526;13.326;2022-12-07T11:20:37;4.60;99.90
15749;DHT22;7976;52.526;13.326;2022-12-07T11:23:18;4.60;99.90
15749;DHT22;7976;52.526;13.326;2022-12-07T11:25:54;4.60;99.90
15749;DHT22;7976;52.526;13.326;2022-12-07T11:28:42;4.70;99.90
15749;DHT22;7976;52.526;13.326;2022-12-07T11:31:29;4.70;99.90
15749;DHT22;7976;52.526;13.326;2022-12-07T11:34:06;4.70;99.90
15749;DHT22;7976;52.526;13.326;2022-12-07T11:36:43;4.70;99.90
15749;DHT22;7976;52.526;13.326;2022-12-07T11:39:26;4.70;99.90
15749;DHT22;7976;52.526;13.326;2022-12-07T11:42:05;4.70;99.90
15749;DHT22;7976;52.526;13.326;2022-12-07T11:44:50;4.70;99.90
15749;DHT22;7976;52.526;13.326;2022-12-07T11:47:27;4.80;99.90
15749;DHT22;7976;52.526;13.326;2022-12-07T11:50:09;4.70;99.90
15749;DHT22;7976;52.526;13.326;2022-12-07T11:52:51;4.70;99.90
15749;DHT22;7976;52.526;13.326;2022-12-07T11:55:26;4.70;99.90
15749;DHT22;7976;52.526;13.326;2022-12-07T11:58:03;4.80;99.90
15749;DHT22;7976;52.526;13.326;2022-12-07T12:00:32;4.80;99.90
15749;DHT22;7976;52.526;13.326;2022-12-07T12:03:05;4.80;99.90
15749;DHT22;7976;52.526;13.326;2022-12-07T12:05:39;4.90;99.90
15749;DHT22;7976;52.526;13.326;2022-12-07T12:08:13;4.90;99.90
15749;DHT22;7976;52.526;13.326;2022-12-07T12:10:51;5.00;99.90
15749;DHT22;7976;52.526;13.326;2022-12-07T12:13:46;5.00;99.90
15749;DHT22;7976;52.526;13.326;2022-12-07T12:19:33;5.10;99.90
15749;DHT22;7976;52.526;13.326;2022-12-07T12:22:11;5.10;99.90
15749;DHT22;7976;52.526;13.326;2022-12-07T12:24:43;5.10;99.90
15749;DHT22;7976;52.526;13.326;2022-12-07T12:27:26;5.10;99.90
15749;DHT22;7976;52.526;13.326;2022-12-07T12:29:59;5.10;99.90
15749;DHT22;7976;52.526;13.326;2022-12-07T12:32:37;5.00;99.90
15749;DHT22;7976;52.526;13.326;2022-12-07T12:35:29;5.00;99.90
15749;DHT22;7976;52.526;13.326;2022-12-07T12:38:25;5.00;99.90
15749;DHT22;7976;52.526;13.326;2022-12-07T12:40:56;5.00;99.90
15749;DHT22;7976;52.526;13.326;2022-12-07T12:43:44;5.00;99.90
15749;DHT22;7976;52.526;13.326;2022-12-07T12:49:38;5.00;99.90
15749;DHT22;7976;52.526;13.326;2022-12-07T12:55:58;4.90;99.90
15749;DHT22;7976;52.526;13.326;2022-12-07T12:58:48;4.90;99.90
15749;DHT22;7976;52.526;13.326;2022-12-07T13:01:46;4.80;99.90
15749;DHT22;7976;52.526;13.326;2022-12-07T13:07:59;4.90;99.90
15749;DHT22;7976;52.526;13.326;2022-12-07T13:10:42;4.90;99.90
15749;DHT22;7976;52.526;13.326;2022-12-07T13:13:32;4.90;99.90
15749;DHT22;7976;52.526;13.326;2022-12-07T13:16:36;4.90;99.90
15749;DHT22;7976;52.526;13.326;2022-12-07T13:22:49;4.90;99.90
15749;DHT22;7976;52.526;13.326;2022-12-07T13:25:28;4.90;99.90
15749;DHT22;7976;52.526;13.326;2022-12-07T13:28:01;5.00;99.90
15749;DHT22;7976;52.526;13.326;2022-12-07T13:30:43;4.90;99.90
15749;DHT22;7976;52.526;13.326;2022-12-07T13:33:13;5.00;99.90
15749;DHT22;7976;52.526;13.326;2022-12-07T13:35:42;5.00;99.90
15749;DHT22;7976;52.526;13.326;2022-12-07T13:38:22;5.10;99.90
15749;DHT22;7976;52.526;13.326;2022-12-07T13:41:13;5.10;99.90
15749;DHT22;7976;52.526;13.326;2022-12-07T13:43:46;5.10;99.90
15749;DHT22;7976;52.526;13.326;2022-12-07T13:46:18;5.00;99.90
15749;DHT22;7976;52.526;13.326;2022-12-07T13:48:50;5.00;99.90
15749;DHT22;7976;52.526;13.326;2022-12-07T13:51:22;5.00;99.90
15749;DHT22;7976;52.526;13.326;2022-12-07T13:53:52;5.10;99.90
15749;DHT22;7976;52.526;13.326;2022-12-07T13:56:27;5.10;99.90
15749;DHT22;7976;52.526;13.326;2022-12-07T13:58:59;5.10;99.90
15749;DHT22;7976;52.526;13.326;2022-12-07T14:01:28;5.10;99.90
15749;DHT22;7976;52.526;13.326;2022-12-07T14:04:19;5.00;99.90
15749;DHT22;7976;52.526;13.326;2022-12-07T14:06:57;5.00;99.90
15749;DHT22;7976;52.526;13.326;2022-12-07T14:09:28;5.00;99.90
15749;DHT22;7976;52.526;13.326;2022-12-07T14:11:57;4.90;99.90
15749;DHT22;7976;52.526;13.326;2022-12-07T14:14:27;4.90;99.90
15749;DHT22;7976;52.526;13.326;2022-12-07T14:16:59;4.90;99.90
15749;DHT22;7976;52.526;13.326;2022-12-07T14:19:49;4.90;99.90
15749;DHT22;7976;52.526;13.326;2022-12-07T14:22:24;4.90;99.90
15749;DHT22;7976;52.526;13.326;2022-12-07T14:24:59;4.90;99.90
15749;DHT22;7976;52.526;13.326;2022-12-07T14:27:31;4.90;99.90
15749;DHT22;7976;52.526;13.326;2022-12-07T14:30:01;4.90;99.90
15749;DHT22;7976;52.526;13.326;2022-12-07T14:32:30;4.90;99.90
15749;DHT22;7976;52.526;13.326;2022-12-07T14:35:00;4.80;99.90
15749;DHT22;7976;52.526;13.326;2022-12-07T14:37:30;4.80;99.90
15749;DHT22;7976;52.526;13.326;2022-12-07T14:39:57;4.80;99.90
15749;DHT22;7976;52.526;13.326;2022-12-07T14:42:27;4.70;99.90
15749;DHT22;7976;52.526;13.326;2022-12-07T14:44:57;4.70;99.90
15749;DHT22;7976;52.526;13.326;2022-12-07T14:47:24;4.60;99.90
15749;DHT22;7976;52.526;13.326;2022-12-07T14:49:52;4.60;99.90
15749;DHT22;7976;52.526;13.326;2022-12-07T14:52:21;4.50;99.90
15749;DHT22;7976;52.526;13.326;2022-12-07T14:54:51;4.50;99.90
15749;DHT22;7976;52.526;13.326;2022-12-07T14:57:18;4.50;99.90
15749;DHT22;7976;52.526;13.326;2022-12-07T14:59:46;4.50;99.90
15749;DHT22;7976;52.526;13.326;2022-12-07T15:02:14;4.40;99.90
15749;DHT22;7976;52.526;13.326;2022-12-07T15:04:41;4.40;99.90
15749;DHT22;7976;52.526;13.326;2022-12-07T15:07:14;4.40;99.90
15749;DHT22;7976;52.526;13.326;2022-12-07T15:09:45;4.30;99.90
15749;DHT22;7976;52.526;13.326;2022-12-07T15:12:12;4.30;99.90
15749;DHT22;7976;52.526;13.326;2022-12-07T15:14:39;4.20;99.90
15749;DHT22;7976;52.526;13.326;2022-12-07T15:17:09;4.20;99.90
15749;DHT22;7976;52.526;13.326;2022-12-07T15:19:37;4.20;99.90
15749;DHT22;7976;52.526;13.326;2022-12-07T15:22:04;4.10;99.90
15749;DHT22;7976;52.526;13.326;2022-12-07T15:24:31;4.10;99.90
15749;DHT22;7976;52.526;13.326;2022-12-07T15:26:57;4.10;99.90
15749;DHT22;7976;52.526;13.326;2022-12-07T15:29:25;4.10;99.90
15749;DHT22;7976;52.526;13.326;2022-12-07T15:31:52;4.00;99.90
15749;DHT22;7976;52.526;13.326;2022-12-07T15:34:20;4.00;99.90
15749;DHT22;7976;52.526;13.326;2022-12-07T15:36:47;4.10;99.90
15749;DHT22;7976;52.526;13.326;2022-12-07T15:39:13;4.10;99.90
15749;DHT22;7976;52.526;13.326;2022-12-07T15:41:40;4.20;99.90
15749;DHT22;7976;52.526;13.326;2022-12-07T15:44:09;4.20;99.90
15749;DHT22;7976;52.526;13.326;2022-12-07T15:46:55;4.20;99.90
15749;DHT22;7976;52.526;13.326;2022-12-07T15:49:23;4.20;99.90
15749;DHT22;7976;52.526;13.326;2022-12-07T15:51:50;4.20;99.90
15749;DHT22;7976;52.526;13.326;2022-12-07T15:54:20;4.20;99.90
15749;DHT22;7976;52.526;13.326;2022-12-07T15:56:49;4.20;99.90
15749;DHT22;7976;52.526;13.326;2022-12-07T15:59:16;4.20;99.90
15749;DHT22;7976;52.526;13.326;2022-12-07T16:01:43;4.20;99.90
15749;DHT22;7976;52.526;13.326;2022-12-07T16:04:11;4.20;99.90
15749;DHT22;7976;52.526;13.326;2022-12-07T16:06:39;4.20;99.90
15749;DHT22;7976;52.526;13.326;2022-12-07T16:09:06;4.20;99.90
15749;DHT22;7976;52.526;13.326;2022-12-07T16:11:34;4.10;99.90
15749;DHT22;7976;52.526;13.326;2022-12-07T16:14:00;4.10;99.90
15749;DHT22;7976;52.526;13.326;2022-12-07T16:16:27;4.00;99.90
15749;DHT22;7976;52.526;13.326;2022-12-07T16:18:54;4.00;99.90
15749;DHT22;7976;52.526;13.326;2022-12-07T16:21:21;4.00;99.90
15749;DHT22;7976;52.526;13.326;2022-12-07T16:23:49;3.90;99.90
15749;DHT22;7976;52.526;13.326;2022-12-07T16:26:17;3.90;99.90
15749;DHT22;7976;52.526;13.326;2022-12-07T16:28:48;3.90;99.90
15749;DHT22;7976;52.526;13.326;2022-12-07T16:31:18;3.80;99.90
15749;DHT22;7976;52.526;13.326;2022-12-07T16:33:48;3.80;99.90
15749;DHT22;7976;52.526;13.326;2022-12-07T16:36:16;3.80;99.90